Wetterdaten: Woche 27.06.05 - 03.07.05 (KW26)
Datum Zeit Temperatur Luftfeuchte Luftdruck Niederschlag Windrichtung Wind
27.06.2005 00:00 19,7 C 91 % 1023 hPa 0,0 l/m NW 3,0 km/h (1 Bft)
27.06.2005 01:00 19,2 C 90 % 1022 hPa 0,0 l/m NW 4,3 km/h (1 Bft)
27.06.2005 02:00 18,5 C 92 % 1022 hPa 0,0 l/m NW 8,3 km/h (2 Bft)
27.06.2005 03:00 18,0 C 93 % 1022 hPa 0,0 l/m W-NW 3,6 km/h (1 Bft)
27.06.2005 04:00 17,5 C 94 % 1022 hPa 0,0 l/m NW 7,2 km/h (2 Bft)
27.06.2005 05:00 17,1 C 94 % 1022 hPa 0,0 l/m W 0,9 km/h (0 Bft)
27.06.2005 06:00 17,1 C 95 % 1022 hPa 0,0 l/m NW 1,9 km/h (1 Bft)
27.06.2005 07:00 18,0 C 92 % 1022 hPa 0,0 l/m N 3,8 km/h (1 Bft)
27.06.2005 08:00 19,6 C 85 % 1022 hPa 0,0 l/m N 3,6 km/h (1 Bft)
27.06.2005 09:00 21,9 C 77 % 1022 hPa 0,0 l/m O-NO 4,3 km/h (1 Bft)
27.06.2005 10:00 24,8 C 66 % 1022 hPa 0,0 l/m N-NO 4,8 km/h (1 Bft)
27.06.2005 11:00 26,6 C 57 % 1022 hPa 0,0 l/m O-NO 2,8 km/h (1 Bft)
27.06.2005 12:00 28,0 C 51 % 1022 hPa 0,0 l/m W-SW 0,1 km/h (0 Bft)
27.06.2005 13:00 29,1 C 45 % 1021 hPa 0,0 l/m SW 3,0 km/h (1 Bft)
27.06.2005 14:00 29,7 C 42 % 1021 hPa 0,0 l/m O-NO 7,4 km/h (2 Bft)
27.06.2005 15:00 30,8 C 39 % 1020 hPa 0,0 l/m S 6,8 km/h (2 Bft)
27.06.2005 16:00 30,6 C 40 % 1020 hPa 0,0 l/m S-SW 10,0 km/h (2 Bft)
27.06.2005 17:00 28,8 C 47 % 1020 hPa 0,0 l/m W-SW 6,3 km/h (2 Bft)
27.06.2005 18:00 26,2 C 59 % 1020 hPa 0,0 l/m W 5,8 km/h (2 Bft)
27.06.2005 19:00 24,4 C 71 % 1019 hPa 0,0 l/m N-NW 8,1 km/h (2 Bft)
27.06.2005 20:00 22,7 C 78 % 1019 hPa 0,0 l/m W 2,5 km/h (1 Bft)
27.06.2005 21:00 21,4 C 83 % 1019 hPa 0,0 l/m N 0,0 km/h (0 Bft)
27.06.2005 22:00 20,3 C 85 % 1019 hPa 0,0 l/m N 0,0 km/h (0 Bft)
27.06.2005 23:00 19,8 C 84 % 1019 hPa 0,0 l/m NW 0,7 km/h (0 Bft)
28.06.2005 00:00 19,2 C 85 % 1019 hPa 0,0 l/m NW 0,3 km/h (0 Bft)
28.06.2005 01:00 18,7 C 88 % 1020 hPa 0,0 l/m N 0,0 km/h (0 Bft)
28.06.2005 02:00 18,3 C 90 % 1019 hPa 0,0 l/m N 0,0 km/h (0 Bft)
28.06.2005 03:00 18,1 C 92 % 1019 hPa 0,0 l/m N 0,0 km/h (0 Bft)
28.06.2005 04:00 17,7 C 93 % 1019 hPa 0,0 l/m N 0,0 km/h (0 Bft)
28.06.2005 05:00 17,1 C 95 % 1019 hPa 0,0 l/m N 0,0 km/h (0 Bft)
28.06.2005 06:00 17,0 C 96 % 1019 hPa 0,0 l/m N 0,0 km/h (0 Bft)
28.06.2005 07:00 17,9 C 98 % 1019 hPa 0,0 l/m S-SO 0,2 km/h (0 Bft)
28.06.2005 08:00 19,8 C 93 % 1019 hPa 0,0 l/m S-SW 2,0 km/h (1 Bft)
28.06.2005 09:00 22,5 C 80 % 1019 hPa 0,0 l/m S 4,4 km/h (1 Bft)
28.06.2005 10:00 26,0 C 63 % 1019 hPa 0,0 l/m S 6,4 km/h (2 Bft)
28.06.2005 11:00 28,3 C 52 % 1018 hPa 0,0 l/m O-SO 6,7 km/h (2 Bft)
28.06.2005 12:00 29,9 C 46 % 1018 hPa 0,0 l/m N-NO 6,6 km/h (2 Bft)
28.06.2005 13:00 29,5 C 43 % 1018 hPa 0,0 l/m O-SO 2,8 km/h (1 Bft)
28.06.2005 14:00 29,2 C 46 % 1017 hPa 0,0 l/m W-SW 5,7 km/h (1 Bft)
28.06.2005 15:00 27,7 C 55 % 1017 hPa 0,0 l/m W 2,4 km/h (1 Bft)
28.06.2005 16:00 27,1 C 57 % 1016 hPa 0,0 l/m W 2,1 km/h (1 Bft)
28.06.2005 17:00 26,4 C 60 % 1016 hPa 0,0 l/m N 0,2 km/h (0 Bft)
28.06.2005 18:00 28,3 C 53 % 1015 hPa 0,0 l/m W 0,8 km/h (0 Bft)
28.06.2005 19:00 25,1 C 65 % 1015 hPa 0,0 l/m W 4,5 km/h (1 Bft)
28.06.2005 20:00 23,9 C 69 % 1015 hPa 0,0 l/m N-NO 1,3 km/h (1 Bft)
28.06.2005 21:00 22,5 C 75 % 1015 hPa 0,0 l/m NW 1,0 km/h (0 Bft)
28.06.2005 22:00 21,5 C 78 % 1014 hPa 0,0 l/m W 0,7 km/h (0 Bft)
28.06.2005 23:00 20,5 C 79 % 1014 hPa 0,0 l/m N 0,0 km/h (0 Bft)
29.06.2005 00:00 19,7 C 81 % 1014 hPa 0,0 l/m NW 2,3 km/h (1 Bft)
29.06.2005 01:00 19,7 C 82 % 1014 hPa 0,0 l/m W-NW 4,4 km/h (1 Bft)
29.06.2005 02:00 19,7 C 82 % 1013 hPa 0,0 l/m W-NW 3,3 km/h (1 Bft)
29.06.2005 03:00 19,2 C 84 % 1013 hPa 0,0 l/m S-SW 3,6 km/h (1 Bft)
29.06.2005 04:00 19,8 C 81 % 1013 hPa 0,0 l/m W-SW 4,0 km/h (1 Bft)
29.06.2005 05:00 18,8 C 92 % 1012 hPa 1,0 l/m S-SW 5,5 km/h (1 Bft)
29.06.2005 06:00 18,3 C 95 % 1012 hPa 0,0 l/m S-SW 3,8 km/h (1 Bft)
29.06.2005 07:00 18,9 C 96 % 1012 hPa 0,0 l/m NW 6,2 km/h (2 Bft)
29.06.2005 08:00 19,8 C 93 % 1012 hPa 0,0 l/m N-NW 0,7 km/h (0 Bft)
29.06.2005 09:00 22,3 C 83 % 1012 hPa 0,0 l/m S 8,2 km/h (2 Bft)
29.06.2005 10:00 25,4 C 65 % 1012 hPa 0,0 l/m S 15,2 km/h (3 Bft)
29.06.2005 11:00 27,0 C 51 % 1012 hPa 0,0 l/m W 15,4 km/h (3 Bft)
29.06.2005 12:00 28,4 C 46 % 1011 hPa 0,0 l/m W 13,9 km/h (3 Bft)
29.06.2005 13:00 28,4 C 42 % 1010 hPa 0,0 l/m SW 14,0 km/h (3 Bft)
29.06.2005 14:00 28,5 C 43 % 1010 hPa 0,0 l/m W-SW 17,6 km/h (3 Bft)
29.06.2005 15:00 27,6 C 44 % 1009 hPa 0,0 l/m SW 12,1 km/h (2 Bft)
29.06.2005 16:00 27,3 C 51 % 1009 hPa 0,0 l/m N 5,7 km/h (1 Bft)
29.06.2005 17:00 24,7 C 62 % 1009 hPa 0,0 l/m N 10,9 km/h (2 Bft)
29.06.2005 18:00 20,2 C 79 % 1010 hPa 2,0 l/m N-NW 6,2 km/h (2 Bft)
29.06.2005 19:00 19,8 C 77 % 1009 hPa 0,0 l/m SO 0,6 km/h (0 Bft)
29.06.2005 20:00 17,8 C 90 % 1011 hPa 4,0 l/m W-SW 19,3 km/h (3 Bft)
29.06.2005 21:00 16,6 C 95 % 1010 hPa 0,0 l/m S 18,1 km/h (3 Bft)
29.06.2005 22:00 16,2 C 99 % 1011 hPa 0,0 l/m S-SW 17,7 km/h (3 Bft)
29.06.2005 23:00 16,1 C 96 % 1012 hPa 0,0 l/m W-SW 7,4 km/h (2 Bft)
30.06.2005 00:00 15,9 C 95 % 1011 hPa 0,0 l/m SW 10,5 km/h (2 Bft)
30.06.2005 01:00 15,9 C 94 % 1011 hPa 0,0 l/m W-SW 13,3 km/h (3 Bft)
30.06.2005 02:00 15,9 C 96 % 1011 hPa 0,0 l/m SW 12,8 km/h (3 Bft)
30.06.2005 03:00 15,6 C 96 % 1011 hPa 0,0 l/m W-SW 12,3 km/h (3 Bft)
30.06.2005 04:00 15,4 C 95 % 1011 hPa 0,0 l/m SW 10,3 km/h (2 Bft)
30.06.2005 05:00 15,4 C 95 % 1011 hPa 0,0 l/m SW 8,4 km/h (2 Bft)
30.06.2005 06:00 15,9 C 94 % 1012 hPa 0,0 l/m S 5,7 km/h (1 Bft)
30.06.2005 07:00 16,3 C 94 % 1012 hPa 0,0 l/m W-SW 7,1 km/h (2 Bft)
30.06.2005 08:00 17,1 C 89 % 1012 hPa 0,0 l/m W-SW 7,6 km/h (2 Bft)
30.06.2005 09:00 17,5 C 83 % 1013 hPa 0,0 l/m W-SW 2,9 km/h (1 Bft)
30.06.2005 10:00 17,9 C 81 % 1013 hPa 0,0 l/m W-SW 5,5 km/h (1 Bft)
30.06.2005 11:00 19,5 C 71 % 1013 hPa 0,0 l/m W 10,3 km/h (2 Bft)
30.06.2005 12:00 19,7 C 72 % 1013 hPa 0,0 l/m S 18,5 km/h (3 Bft)
30.06.2005 13:00 20,0 C 72 % 1013 hPa 0,0 l/m S-SW 19,7 km/h (3 Bft)
30.06.2005 14:00 19,5 C 75 % 1013 hPa 0,0 l/m S 17,5 km/h (3 Bft)
30.06.2005 15:00 19,5 C 77 % 1013 hPa 1,0 l/m S-SW 19,5 km/h (3 Bft)
30.06.2005 16:00 20,2 C 68 % 1013 hPa 0,0 l/m S 8,3 km/h (2 Bft)
30.06.2005 17:00 21,2 C 68 % 1012 hPa 0,0 l/m S 1,3 km/h (1 Bft)
30.06.2005 18:00 23,1 C 56 % 1012 hPa 0,0 l/m N-NW 1,5 km/h (1 Bft)
30.06.2005 19:00 22,9 C 58 % 1012 hPa 0,0 l/m N 0,0 km/h (0 Bft)
30.06.2005 20:00 20,4 C 72 % 1012 hPa 0,0 l/m N 0,0 km/h (0 Bft)
30.06.2005 21:00 18,8 C 76 % 1012 hPa 0,0 l/m N 0,0 km/h (0 Bft)
30.06.2005 22:00 17,7 C 80 % 1012 hPa 0,0 l/m N 0,4 km/h (0 Bft)
30.06.2005 23:00 16,8 C 82 % 1012 hPa 0,0 l/m N 0,0 km/h (0 Bft)
01.07.2005 00:00 16,9 C 75 % 1013 hPa 0,0 l/m W 8,3 km/h (2 Bft)
01.07.2005 01:00 17,5 C 68 % 1012 hPa 0,0 l/m W 9,5 km/h (2 Bft)
01.07.2005 02:00 16,9 C 72 % 1012 hPa 0,0 l/m W-SW 5,4 km/h (1 Bft)
01.07.2005 03:00 15,7 C 84 % 1013 hPa 1,0 l/m S-SW 3,0 km/h (1 Bft)
01.07.2005 04:00 15,1 C 92 % 1013 hPa 1,0 l/m W-SW 3,6 km/h (1 Bft)
01.07.2005 05:00 14,5 C 94 % 1014 hPa 0,0 l/m S-SW 5,2 km/h (1 Bft)
01.07.2005 06:00 14,2 C 97 % 1014 hPa 0,0 l/m S-SW 12,7 km/h (3 Bft)
01.07.2005 07:00 14,1 C 98 % 1015 hPa 1,0 l/m S-SW 15,8 km/h (3 Bft)
01.07.2005 08:00 13,4 C 96 % 1016 hPa 1,0 l/m S-SW 13,7 km/h (3 Bft)
01.07.2005 09:00 13,4 C 97 % 1016 hPa 1,0 l/m S-SW 16,4 km/h (3 Bft)
01.07.2005 10:00 14,0 C 98 % 1016 hPa 0,0 l/m S 15,9 km/h (3 Bft)
01.07.2005 11:00 15,6 C 87 % 1016 hPa 0,0 l/m S-SW 17,4 km/h (3 Bft)
01.07.2005 12:00 15,9 C 88 % 1016 hPa 0,0 l/m SW 18,8 km/h (3 Bft)
01.07.2005 13:00 17,3 C 78 % 1016 hPa 0,0 l/m W 14,6 km/h (3 Bft)
01.07.2005 14:00 17,6 C 74 % 1017 hPa 0,0 l/m W 17,8 km/h (3 Bft)
01.07.2005 15:00 17,5 C 70 % 1017 hPa 0,0 l/m W 21,3 km/h (4 Bft)
01.07.2005 16:00 16,8 C 69 % 1018 hPa 0,0 l/m W 22,3 km/h (4 Bft)
01.07.2005 17:00 17,0 C 63 % 1019 hPa 0,0 l/m W 24,2 km/h (4 Bft)
01.07.2005 18:00 18,5 C 55 % 1019 hPa 0,0 l/m W 15,6 km/h (3 Bft)
01.07.2005 19:00 17,1 C 61 % 1019 hPa 0,0 l/m W 13,1 km/h (3 Bft)
01.07.2005 20:00 16,5 C 62 % 1020 hPa 0,0 l/m W-SW 9,9 km/h (2 Bft)
01.07.2005 21:00 15,2 C 67 % 1021 hPa 0,0 l/m W-SW 4,6 km/h (1 Bft)
01.07.2005 22:00 15,0 C 69 % 1022 hPa 0,0 l/m W-SW 8,2 km/h (2 Bft)
01.07.2005 23:00 14,7 C 70 % 1022 hPa 0,0 l/m W-SW 8,7 km/h (2 Bft)
02.07.2005 00:00 14,1 C 73 % 1022 hPa 0,0 l/m W-SW 6,8 km/h (2 Bft)
02.07.2005 01:00 14,2 C 74 % 1022 hPa 0,0 l/m W-SW 6,4 km/h (2 Bft)
02.07.2005 02:00 14,0 C 77 % 1022 hPa 0,0 l/m W-SW 6,9 km/h (2 Bft)
02.07.2005 03:00 13,4 C 85 % 1022 hPa 1,0 l/m S 5,9 km/h (2 Bft)
02.07.2005 04:00 13,0 C 92 % 1022 hPa 0,0 l/m SO 0,5 km/h (0 Bft)
02.07.2005 05:00 13,0 C 95 % 1022 hPa 0,0 l/m S 2,7 km/h (1 Bft)
02.07.2005 06:00 13,1 C 97 % 1022 hPa 1,0 l/m S 4,6 km/h (1 Bft)
02.07.2005 07:00 13,4 C 99 % 1022 hPa 0,0 l/m S 6,6 km/h (2 Bft)
02.07.2005 08:00 14,1 C 99 % 1023 hPa 0,0 l/m S-SW 12,0 km/h (2 Bft)
02.07.2005 09:00 14,8 C 91 % 1023 hPa 0,0 l/m S-SW 12,2 km/h (2 Bft)
02.07.2005 10:00 15,4 C 86 % 1023 hPa 0,0 l/m W-SW 11,4 km/h (2 Bft)
02.07.2005 11:00 16,1 C 83 % 1023 hPa 0,0 l/m S 12,3 km/h (3 Bft)
02.07.2005 12:00 16,8 C 84 % 1023 hPa 0,0 l/m S-SW 12,6 km/h (3 Bft)
02.07.2005 13:00 18,5 C 76 % 1023 hPa 0,0 l/m S-SW 15,4 km/h (3 Bft)
02.07.2005 14:00 19,4 C 69 % 1023 hPa 0,0 l/m S 14,8 km/h (3 Bft)
02.07.2005 15:00 19,2 C 71 % 1023 hPa 0,0 l/m S-SW 15,8 km/h (3 Bft)
02.07.2005 16:00 19,7 C 66 % 1022 hPa 0,0 l/m W-SW 10,1 km/h (2 Bft)
02.07.2005 17:00 20,2 C 65 % 1022 hPa 0,0 l/m S-SW 10,2 km/h (2 Bft)
02.07.2005 18:00 19,7 C 67 % 1022 hPa 0,0 l/m S-SW 9,2 km/h (2 Bft)
02.07.2005 19:00 19,7 C 69 % 1022 hPa 0,0 l/m S 2,0 km/h (1 Bft)
02.07.2005 20:00 19,3 C 72 % 1022 hPa 0,0 l/m N 0,0 km/h (0 Bft)
02.07.2005 21:00 18,5 C 78 % 1022 hPa 0,0 l/m N 0,0 km/h (0 Bft)
02.07.2005 22:00 17,7 C 83 % 1022 hPa 0,0 l/m N 0,0 km/h (0 Bft)
02.07.2005 23:00 16,9 C 85 % 1022 hPa 0,0 l/m N 0,0 km/h (0 Bft)
03.07.2005 00:00 16,5 C 85 % 1022 hPa 0,0 l/m O-SO 0,0 km/h (0 Bft)
03.07.2005 15:00 26,1 C 43 % 1018 hPa 0,0 l/m N-NO 10,5 km/h (2 Bft)
03.07.2005 16:00 25,3 C 46 % 1018 hPa 0,0 l/m N-NW 12,3 km/h (3 Bft)
03.07.2005 17:00 24,4 C 49 % 1018 hPa 0,0 l/m N 13,1 km/h (3 Bft)
03.07.2005 18:00 24,3 C 50 % 1018 hPa 0,0 l/m N 11,2 km/h (2 Bft)
03.07.2005 19:00 24,1 C 50 % 1017 hPa 0,0 l/m NO 7,9 km/h (2 Bft)
03.07.2005 20:00 23,1 C 55 % 1017 hPa 0,0 l/m N-NO 3,4 km/h (1 Bft)
03.07.2005 21:00 21,7 C 65 % 1017 hPa 0,0 l/m N 0,0 km/h (0 Bft)
03.07.2005 22:00 20,0 C 71 % 1017 hPa 0,0 l/m N 0,0 km/h (0 Bft)
03.07.2005 23:00 18,5 C 75 % 1017 hPa 0,0 l/m N 0,0 km/h (0 Bft)
Min-Datum _ 02.07.05 27.06.05 29.06.05 - - 27.06.05
_ Min-Zeit 05:29 15:37 16:59 - - 00:00
Minimum _ 12,9 C 35 % 1008 hPa - - 0,0 km/h (0 Bft)
Max-Datum _ 27.06.05 29.06.05 27.06.05 29.06.05 - 01.07.05
_ Max-Zeit 16:07 22:10 00:00 20:12 - 16:49
Maximum _ 31,1 C 99 % 1023 hPa 4,0 l/m - 47,4 km/h
W (6 Bft)
Durchschnitt _ 19,9 C 76 % 1017 hPa #15,0 l/m W-SW 7,1 km/h (2 Bft)

Durchschnitt Minimum Temp.19,3 C
Durchschnitt Maximum Temp.20,4 C